sensor_id;sensor_type;location;lat;lon;timestamp;P1;durP1;ratioP1;P2;durP2;ratioP2
15776;SDS011;7989;51.198;6.676;2024-01-27T00:01:14;16.15;;;4.95;;
15776;SDS011;7989;51.198;6.676;2024-01-27T00:03:41;16.20;;;4.05;;
15776;SDS011;7989;51.198;6.676;2024-01-27T00:06:08;12.27;;;4.80;;
15776;SDS011;7989;51.198;6.676;2024-01-27T00:08:35;16.45;;;4.38;;
15776;SDS011;7989;51.198;6.676;2024-01-27T00:11:03;11.57;;;4.35;;
15776;SDS011;7989;51.198;6.676;2024-01-27T00:13:30;10.38;;;4.15;;
15776;SDS011;7989;51.198;6.676;2024-01-27T00:15:57;14.50;;;5.00;;
15776;SDS011;7989;51.198;6.676;2024-01-27T00:18:24;15.98;;;4.93;;
15776;SDS011;7989;51.198;6.676;2024-01-27T00:20:50;14.55;;;4.55;;
15776;SDS011;7989;51.198;6.676;2024-01-27T00:23:17;15.38;;;4.28;;
15776;SDS011;7989;51.198;6.676;2024-01-27T00:25:44;16.30;;;4.15;;
15776;SDS011;7989;51.198;6.676;2024-01-27T00:28:12;12.13;;;4.70;;
15776;SDS011;7989;51.198;6.676;2024-01-27T00:30:39;10.65;;;3.72;;
15776;SDS011;7989;51.198;6.676;2024-01-27T00:33:06;17.77;;;5.25;;
15776;SDS011;7989;51.198;6.676;2024-01-27T00:35:33;12.20;;;3.88;;
15776;SDS011;7989;51.198;6.676;2024-01-27T00:38:00;10.68;;;3.92;;
15776;SDS011;7989;51.198;6.676;2024-01-27T00:40:27;9.45;;;4.22;;
15776;SDS011;7989;51.198;6.676;2024-01-27T00:42:54;16.00;;;4.63;;
15776;SDS011;7989;51.198;6.676;2024-01-27T00:45:22;14.45;;;4.18;;
15776;SDS011;7989;51.198;6.676;2024-01-27T00:47:51;11.50;;;3.85;;
15776;SDS011;7989;51.198;6.676;2024-01-27T00:50:18;15.60;;;4.38;;
15776;SDS011;7989;51.198;6.676;2024-01-27T00:52:45;7.18;;;4.18;;
15776;SDS011;7989;51.198;6.676;2024-01-27T00:55:11;15.65;;;4.85;;
15776;SDS011;7989;51.198;6.676;2024-01-27T00:57:39;14.95;;;4.50;;
15776;SDS011;7989;51.198;6.676;2024-01-27T01:00:06;13.32;;;4.40;;
15776;SDS011;7989;51.198;6.676;2024-01-27T01:02:36;12.82;;;4.60;;
15776;SDS011;7989;51.198;6.676;2024-01-27T01:05:04;17.10;;;4.22;;
15776;SDS011;7989;51.198;6.676;2024-01-27T01:07:31;12.63;;;3.85;;
15776;SDS011;7989;51.198;6.676;2024-01-27T01:09:58;17.23;;;4.00;;
15776;SDS011;7989;51.198;6.676;2024-01-27T01:12:25;16.52;;;4.78;;
15776;SDS011;7989;51.198;6.676;2024-01-27T01:14:52;11.80;;;4.57;;
15776;SDS011;7989;51.198;6.676;2024-01-27T01:17:19;14.75;;;4.55;;
15776;SDS011;7989;51.198;6.676;2024-01-27T01:19:47;14.35;;;4.45;;
15776;SDS011;7989;51.198;6.676;2024-01-27T01:22:14;10.93;;;4.65;;
15776;SDS011;7989;51.198;6.676;2024-01-27T01:24:41;15.00;;;4.47;;
15776;SDS011;7989;51.198;6.676;2024-01-27T01:27:08;10.80;;;3.42;;
15776;SDS011;7989;51.198;6.676;2024-01-27T01:29:35;11.43;;;4.72;;
15776;SDS011;7989;51.198;6.676;2024-01-27T01:32:02;12.30;;;4.78;;
15776;SDS011;7989;51.198;6.676;2024-01-27T01:34:29;14.07;;;4.32;;
15776;SDS011;7989;51.198;6.676;2024-01-27T01:36:58;12.57;;;4.07;;
15776;SDS011;7989;51.198;6.676;2024-01-27T01:39:27;12.02;;;5.00;;
15776;SDS011;7989;51.198;6.676;2024-01-27T01:41:53;12.60;;;4.13;;
15776;SDS011;7989;51.198;6.676;2024-01-27T01:44:20;18.83;;;4.72;;
15776;SDS011;7989;51.198;6.676;2024-01-27T01:46:47;12.90;;;4.57;;
15776;SDS011;7989;51.198;6.676;2024-01-27T01:49:14;13.50;;;4.90;;
15776;SDS011;7989;51.198;6.676;2024-01-27T01:51:41;9.80;;;3.65;;
15776;SDS011;7989;51.198;6.676;2024-01-27T01:54:09;12.43;;;4.07;;
15776;SDS011;7989;51.198;6.676;2024-01-27T01:56:38;14.88;;;4.80;;
15776;SDS011;7989;51.198;6.676;2024-01-27T01:59:05;11.98;;;4.55;;
15776;SDS011;7989;51.198;6.676;2024-01-27T02:01:32;15.15;;;4.63;;
15776;SDS011;7989;51.198;6.676;2024-01-27T02:03:59;13.38;;;5.00;;
15776;SDS011;7989;51.198;6.676;2024-01-27T02:06:26;13.43;;;4.88;;
15776;SDS011;7989;51.198;6.676;2024-01-27T02:08:52;11.63;;;4.65;;
15776;SDS011;7989;51.198;6.676;2024-01-27T02:11:21;12.35;;;5.15;;
15776;SDS011;7989;51.198;6.676;2024-01-27T02:13:48;13.40;;;4.78;;
15776;SDS011;7989;51.198;6.676;2024-01-27T02:16:15;13.23;;;4.90;;
15776;SDS011;7989;51.198;6.676;2024-01-27T02:18:42;14.98;;;4.53;;
15776;SDS011;7989;51.198;6.676;2024-01-27T02:21:09;11.38;;;5.07;;
15776;SDS011;7989;51.198;6.676;2024-01-27T02:23:36;11.05;;;4.50;;
15776;SDS011;7989;51.198;6.676;2024-01-27T02:26:04;15.80;;;5.40;;
15776;SDS011;7989;51.198;6.676;2024-01-27T02:28:32;12.32;;;4.90;;
15776;SDS011;7989;51.198;6.676;2024-01-27T02:31:00;17.05;;;4.85;;
15776;SDS011;7989;51.198;6.676;2024-01-27T02:33:27;15.30;;;5.63;;
15776;SDS011;7989;51.198;6.676;2024-01-27T02:35:54;13.25;;;4.22;;
15776;SDS011;7989;51.198;6.676;2024-01-27T02:38:21;11.18;;;4.57;;
15776;SDS011;7989;51.198;6.676;2024-01-27T02:40:48;15.10;;;4.85;;
15776;SDS011;7989;51.198;6.676;2024-01-27T02:43:16;14.60;;;5.45;;
15776;SDS011;7989;51.198;6.676;2024-01-27T02:45:43;15.80;;;5.20;;
15776;SDS011;7989;51.198;6.676;2024-01-27T02:48:10;13.23;;;5.18;;
15776;SDS011;7989;51.198;6.676;2024-01-27T02:50:37;10.02;;;4.82;;
15776;SDS011;7989;51.198;6.676;2024-01-27T02:53:03;12.20;;;4.53;;
15776;SDS011;7989;51.198;6.676;2024-01-27T02:55:30;10.95;;;4.43;;
15776;SDS011;7989;51.198;6.676;2024-01-27T02:57:57;10.43;;;4.40;;
15776;SDS011;7989;51.198;6.676;2024-01-27T03:00:25;17.35;;;6.47;;
15776;SDS011;7989;51.198;6.676;2024-01-27T03:02:52;16.90;;;5.82;;
15776;SDS011;7989;51.198;6.676;2024-01-27T03:05:19;13.05;;;4.82;;
15776;SDS011;7989;51.198;6.676;2024-01-27T03:07:46;10.07;;;4.78;;
15776;SDS011;7989;51.198;6.676;2024-01-27T03:10:13;10.05;;;4.80;;
15776;SDS011;7989;51.198;6.676;2024-01-27T03:12:40;16.73;;;5.65;;
15776;SDS011;7989;51.198;6.676;2024-01-27T03:15:07;13.10;;;4.53;;
15776;SDS011;7989;51.198;6.676;2024-01-27T03:17:35;17.00;;;5.00;;
15776;SDS011;7989;51.198;6.676;2024-01-27T03:20:03;12.23;;;5.05;;
15776;SDS011;7989;51.198;6.676;2024-01-27T03:22:30;11.40;;;4.07;;
15776;SDS011;7989;51.198;6.676;2024-01-27T03:24:57;15.20;;;5.03;;
15776;SDS011;7989;51.198;6.676;2024-01-27T03:27:24;10.50;;;4.18;;
15776;SDS011;7989;51.198;6.676;2024-01-27T03:29:50;10.48;;;4.13;;
15776;SDS011;7989;51.198;6.676;2024-01-27T03:32:17;15.57;;;5.45;;
15776;SDS011;7989;51.198;6.676;2024-01-27T03:34:45;13.75;;;4.93;;
15776;SDS011;7989;51.198;6.676;2024-01-27T03:37:12;14.70;;;4.90;;
15776;SDS011;7989;51.198;6.676;2024-01-27T03:39:40;14.40;;;4.65;;
15776;SDS011;7989;51.198;6.676;2024-01-27T03:42:08;10.73;;;4.88;;
15776;SDS011;7989;51.198;6.676;2024-01-27T03:44:35;10.68;;;4.35;;
15776;SDS011;7989;51.198;6.676;2024-01-27T03:47:02;13.32;;;4.18;;
15776;SDS011;7989;51.198;6.676;2024-01-27T03:49:29;14.48;;;5.43;;
15776;SDS011;7989;51.198;6.676;2024-01-27T03:51:57;13.18;;;5.80;;
15776;SDS011;7989;51.198;6.676;2024-01-27T03:54:24;11.23;;;4.75;;
15776;SDS011;7989;51.198;6.676;2024-01-27T03:56:50;12.80;;;5.30;;
15776;SDS011;7989;51.198;6.676;2024-01-27T03:59:17;13.60;;;5.50;;
15776;SDS011;7989;51.198;6.676;2024-01-27T04:01:44;14.43;;;4.63;;
15776;SDS011;7989;51.198;6.676;2024-01-27T04:04:11;11.77;;;5.28;;
15776;SDS011;7989;51.198;6.676;2024-01-27T04:06:38;14.98;;;5.40;;
15776;SDS011;7989;51.198;6.676;2024-01-27T04:09:07;8.45;;;4.60;;
15776;SDS011;7989;51.198;6.676;2024-01-27T04:11:35;15.05;;;4.85;;
15776;SDS011;7989;51.198;6.676;2024-01-27T04:14:03;13.82;;;4.72;;
15776;SDS011;7989;51.198;6.676;2024-01-27T04:16:30;13.70;;;5.10;;
15776;SDS011;7989;51.198;6.676;2024-01-27T04:18:57;17.23;;;4.40;;
15776;SDS011;7989;51.198;6.676;2024-01-27T04:21:24;14.32;;;4.47;;
15776;SDS011;7989;51.198;6.676;2024-01-27T04:23:50;10.70;;;4.70;;
15776;SDS011;7989;51.198;6.676;2024-01-27T04:26:19;14.40;;;4.28;;
15776;SDS011;7989;51.198;6.676;2024-01-27T04:28:45;13.50;;;4.80;;
15776;SDS011;7989;51.198;6.676;2024-01-27T04:31:12;11.52;;;4.75;;
15776;SDS011;7989;51.198;6.676;2024-01-27T04:33:39;14.70;;;4.60;;
15776;SDS011;7989;51.198;6.676;2024-01-27T04:36:06;15.30;;;4.43;;
15776;SDS011;7989;51.198;6.676;2024-01-27T04:38:34;14.95;;;4.65;;
15776;SDS011;7989;51.198;6.676;2024-01-27T04:41:01;11.05;;;3.97;;
15776;SDS011;7989;51.198;6.676;2024-01-27T04:43:30;13.40;;;4.65;;
15776;SDS011;7989;51.198;6.676;2024-01-27T04:45:57;12.53;;;4.87;;
15776;SDS011;7989;51.198;6.676;2024-01-27T04:48:24;15.77;;;5.40;;
15776;SDS011;7989;51.198;6.676;2024-01-27T04:50:51;14.70;;;4.63;;
15776;SDS011;7989;51.198;6.676;2024-01-27T04:53:17;16.10;;;4.70;;
15776;SDS011;7989;51.198;6.676;2024-01-27T04:55:44;11.45;;;5.07;;
15776;SDS011;7989;51.198;6.676;2024-01-27T04:58:11;13.73;;;4.53;;
15776;SDS011;7989;51.198;6.676;2024-01-27T05:00:40;17.02;;;5.25;;
15776;SDS011;7989;51.198;6.676;2024-01-27T05:03:07;10.20;;;4.03;;
15776;SDS011;7989;51.198;6.676;2024-01-27T05:05:40;14.25;;;4.50;;
15776;SDS011;7989;51.198;6.676;2024-01-27T05:08:07;13.07;;;4.40;;
15776;SDS011;7989;51.198;6.676;2024-01-27T05:10:34;14.45;;;4.68;;
15776;SDS011;7989;51.198;6.676;2024-01-27T05:13:01;12.75;;;4.65;;
15776;SDS011;7989;51.198;6.676;2024-01-27T05:15:28;11.88;;;4.20;;
15776;SDS011;7989;51.198;6.676;2024-01-27T05:17:56;15.57;;;4.88;;
15776;SDS011;7989;51.198;6.676;2024-01-27T05:20:23;18.00;;;4.57;;
15776;SDS011;7989;51.198;6.676;2024-01-27T05:22:50;14.20;;;4.50;;
15776;SDS011;7989;51.198;6.676;2024-01-27T05:25:16;13.05;;;4.57;;
15776;SDS011;7989;51.198;6.676;2024-01-27T05:27:43;13.85;;;5.10;;
15776;SDS011;7989;51.198;6.676;2024-01-27T05:30:10;11.93;;;4.55;;
15776;SDS011;7989;51.198;6.676;2024-01-27T05:32:38;10.05;;;4.18;;
15776;SDS011;7989;51.198;6.676;2024-01-27T05:35:06;11.98;;;4.30;;
15776;SDS011;7989;51.198;6.676;2024-01-27T05:37:34;13.60;;;4.38;;
15776;SDS011;7989;51.198;6.676;2024-01-27T05:40:01;13.05;;;4.43;;
15776;SDS011;7989;51.198;6.676;2024-01-27T05:42:28;16.10;;;5.05;;
15776;SDS011;7989;51.198;6.676;2024-01-27T05:44:55;17.45;;;5.32;;
15776;SDS011;7989;51.198;6.676;2024-01-27T05:47:22;13.25;;;4.95;;
15776;SDS011;7989;51.198;6.676;2024-01-27T05:49:49;13.02;;;5.18;;
15776;SDS011;7989;51.198;6.676;2024-01-27T05:52:17;13.13;;;4.88;;
15776;SDS011;7989;51.198;6.676;2024-01-27T05:54:44;13.60;;;4.70;;
15776;SDS011;7989;51.198;6.676;2024-01-27T05:57:11;15.95;;;5.88;;
15776;SDS011;7989;51.198;6.676;2024-01-27T05:59:37;12.80;;;4.67;;
15776;SDS011;7989;51.198;6.676;2024-01-27T06:02:04;8.15;;;4.10;;
15776;SDS011;7989;51.198;6.676;2024-01-27T06:04:31;13.50;;;4.50;;
15776;SDS011;7989;51.198;6.676;2024-01-27T06:06:59;13.20;;;5.47;;
15776;SDS011;7989;51.198;6.676;2024-01-27T06:09:27;11.83;;;4.83;;
15776;SDS011;7989;51.198;6.676;2024-01-27T06:11:54;9.50;;;4.03;;
15776;SDS011;7989;51.198;6.676;2024-01-27T06:14:24;10.32;;;4.75;;
15776;SDS011;7989;51.198;6.676;2024-01-27T06:16:51;14.45;;;4.82;;
15776;SDS011;7989;51.198;6.676;2024-01-27T06:19:18;11.77;;;4.60;;
15776;SDS011;7989;51.198;6.676;2024-01-27T06:21:44;13.00;;;4.90;;
15776;SDS011;7989;51.198;6.676;2024-01-27T06:24:11;19.53;;;5.60;;
15776;SDS011;7989;51.198;6.676;2024-01-27T06:26:39;15.15;;;5.43;;
15776;SDS011;7989;51.198;6.676;2024-01-27T06:29:06;14.27;;;6.07;;
15776;SDS011;7989;51.198;6.676;2024-01-27T06:31:33;14.57;;;5.18;;
15776;SDS011;7989;51.198;6.676;2024-01-27T06:34:00;16.42;;;6.22;;
15776;SDS011;7989;51.198;6.676;2024-01-27T06:36:27;14.50;;;5.37;;
15776;SDS011;7989;51.198;6.676;2024-01-27T06:38:53;15.90;;;5.50;;
15776;SDS011;7989;51.198;6.676;2024-01-27T06:41:19;11.63;;;4.27;;
15776;SDS011;7989;51.198;6.676;2024-01-27T06:43:48;13.33;;;4.77;;
15776;SDS011;7989;51.198;6.676;2024-01-27T06:46:15;14.10;;;6.10;;
15776;SDS011;7989;51.198;6.676;2024-01-27T06:48:41;14.13;;;5.80;;
15776;SDS011;7989;51.198;6.676;2024-01-27T06:51:08;11.30;;;5.20;;
15776;SDS011;7989;51.198;6.676;2024-01-27T06:53:35;14.97;;;5.83;;
15776;SDS011;7989;51.198;6.676;2024-01-27T06:56:03;20.60;;;5.60;;
15776;SDS011;7989;51.198;6.676;2024-01-27T06:58:30;11.85;;;5.68;;
15776;SDS011;7989;51.198;6.676;2024-01-27T07:00:58;13.20;;;4.97;;
15776;SDS011;7989;51.198;6.676;2024-01-27T07:03:25;13.70;;;5.07;;
15776;SDS011;7989;51.198;6.676;2024-01-27T07:05:52;14.03;;;6.90;;
15776;SDS011;7989;51.198;6.676;2024-01-27T07:08:19;16.67;;;5.40;;
15776;SDS011;7989;51.198;6.676;2024-01-27T07:10:46;11.73;;;5.60;;
15776;SDS011;7989;51.198;6.676;2024-01-27T07:13:13;14.47;;;5.27;;
15776;SDS011;7989;51.198;6.676;2024-01-27T07:15:40;16.30;;;5.80;;
15776;SDS011;7989;51.198;6.676;2024-01-27T07:18:09;13.43;;;5.43;;
15776;SDS011;7989;51.198;6.676;2024-01-27T07:20:36;11.13;;;5.57;;
15776;SDS011;7989;51.198;6.676;2024-01-27T07:23:03;14.83;;;5.90;;
15776;SDS011;7989;51.198;6.676;2024-01-27T07:25:30;16.73;;;6.63;;
15776;SDS011;7989;51.198;6.676;2024-01-27T07:27:59;13.03;;;5.57;;
15776;SDS011;7989;51.198;6.676;2024-01-27T07:30:26;13.53;;;5.13;;
15776;SDS011;7989;51.198;6.676;2024-01-27T07:32:54;15.67;;;5.63;;
15776;SDS011;7989;51.198;6.676;2024-01-27T07:35:22;18.87;;;7.83;;
15776;SDS011;7989;51.198;6.676;2024-01-27T07:37:49;15.33;;;6.40;;
15776;SDS011;7989;51.198;6.676;2024-01-27T07:40:16;17.43;;;7.30;;
15776;SDS011;7989;51.198;6.676;2024-01-27T07:42:42;13.00;;;5.43;;
15776;SDS011;7989;51.198;6.676;2024-01-27T07:45:09;11.37;;;4.80;;
15776;SDS011;7989;51.198;6.676;2024-01-27T07:47:36;17.47;;;6.57;;
15776;SDS011;7989;51.198;6.676;2024-01-27T07:50:03;15.33;;;5.30;;
15776;SDS011;7989;51.198;6.676;2024-01-27T07:52:32;14.63;;;5.70;;
15776;SDS011;7989;51.198;6.676;2024-01-27T07:54:59;13.37;;;5.87;;
15776;SDS011;7989;51.198;6.676;2024-01-27T07:57:26;16.63;;;5.60;;
15776;SDS011;7989;51.198;6.676;2024-01-27T07:59:53;18.97;;;6.17;;
15776;SDS011;7989;51.198;6.676;2024-01-27T08:02:20;14.50;;;5.20;;
15776;SDS011;7989;51.198;6.676;2024-01-27T08:04:47;17.23;;;6.23;;
15776;SDS011;7989;51.198;6.676;2024-01-27T08:07:14;16.10;;;5.73;;
15776;SDS011;7989;51.198;6.676;2024-01-27T08:09:43;12.83;;;5.43;;
15776;SDS011;7989;51.198;6.676;2024-01-27T08:12:10;11.27;;;5.40;;
15776;SDS011;7989;51.198;6.676;2024-01-27T08:14:36;17.87;;;5.90;;
15776;SDS011;7989;51.198;6.676;2024-01-27T08:17:04;17.70;;;6.10;;
15776;SDS011;7989;51.198;6.676;2024-01-27T08:19:31;11.40;;;4.90;;
15776;SDS011;7989;51.198;6.676;2024-01-27T08:21:58;15.77;;;5.53;;
15776;SDS011;7989;51.198;6.676;2024-01-27T08:24:25;14.63;;;6.67;;
15776;SDS011;7989;51.198;6.676;2024-01-27T08:26:53;13.53;;;4.90;;
15776;SDS011;7989;51.198;6.676;2024-01-27T08:29:19;16.50;;;6.65;;
15776;SDS011;7989;51.198;6.676;2024-01-27T08:31:46;17.73;;;6.22;;
15776;SDS011;7989;51.198;6.676;2024-01-27T08:34:14;12.27;;;6.97;;
15776;SDS011;7989;51.198;6.676;2024-01-27T08:36:41;16.80;;;6.37;;
15776;SDS011;7989;51.198;6.676;2024-01-27T08:39:08;16.33;;;6.97;;
15776;SDS011;7989;51.198;6.676;2024-01-27T08:41:37;16.00;;;6.70;;
15776;SDS011;7989;51.198;6.676;2024-01-27T08:44:05;14.57;;;5.23;;
15776;SDS011;7989;51.198;6.676;2024-01-27T08:46:35;17.23;;;6.88;;
15776;SDS011;7989;51.198;6.676;2024-01-27T08:49:02;15.40;;;5.80;;
15776;SDS011;7989;51.198;6.676;2024-01-27T08:51:29;12.70;;;5.70;;
15776;SDS011;7989;51.198;6.676;2024-01-27T08:53:55;17.52;;;6.10;;
15776;SDS011;7989;51.198;6.676;2024-01-27T08:56:22;11.95;;;4.82;;
15776;SDS011;7989;51.198;6.676;2024-01-27T08:58:49;16.08;;;6.50;;
15776;SDS011;7989;51.198;6.676;2024-01-27T09:01:19;15.80;;;6.65;;
15776;SDS011;7989;51.198;6.676;2024-01-27T09:03:45;16.38;;;5.97;;
15776;SDS011;7989;51.198;6.676;2024-01-27T09:06:12;13.32;;;5.75;;
15776;SDS011;7989;51.198;6.676;2024-01-27T09:08:39;11.13;;;5.53;;
15776;SDS011;7989;51.198;6.676;2024-01-27T09:11:06;13.88;;;4.95;;
15776;SDS011;7989;51.198;6.676;2024-01-27T09:13:34;13.50;;;5.70;;
15776;SDS011;7989;51.198;6.676;2024-01-27T09:16:01;12.48;;;5.40;;
15776;SDS011;7989;51.198;6.676;2024-01-27T09:18:29;17.25;;;6.75;;
15776;SDS011;7989;51.198;6.676;2024-01-27T09:20:56;12.52;;;5.68;;
15776;SDS011;7989;51.198;6.676;2024-01-27T09:23:23;12.23;;;4.93;;
15776;SDS011;7989;51.198;6.676;2024-01-27T09:25:50;9.55;;;4.68;;
15776;SDS011;7989;51.198;6.676;2024-01-27T09:28:17;15.90;;;5.63;;
15776;SDS011;7989;51.198;6.676;2024-01-27T09:30:44;16.90;;;4.97;;
15776;SDS011;7989;51.198;6.676;2024-01-27T09:33:11;13.35;;;5.40;;
15776;SDS011;7989;51.198;6.676;2024-01-27T09:35:40;14.63;;;6.05;;
15776;SDS011;7989;51.198;6.676;2024-01-27T09:38:07;13.32;;;5.95;;
15776;SDS011;7989;51.198;6.676;2024-01-27T09:40:35;16.33;;;6.07;;
15776;SDS011;7989;51.198;6.676;2024-01-27T09:43:02;14.10;;;6.13;;
15776;SDS011;7989;51.198;6.676;2024-01-27T09:45:29;13.98;;;5.40;;
15776;SDS011;7989;51.198;6.676;2024-01-27T09:47:56;11.77;;;4.97;;
15776;SDS011;7989;51.198;6.676;2024-01-27T09:50:24;15.13;;;5.95;;
15776;SDS011;7989;51.198;6.676;2024-01-27T09:52:52;14.02;;;5.13;;
15776;SDS011;7989;51.198;6.676;2024-01-27T09:55:19;16.95;;;5.55;;
15776;SDS011;7989;51.198;6.676;2024-01-27T09:57:46;14.25;;;5.63;;
15776;SDS011;7989;51.198;6.676;2024-01-27T10:00:14;14.00;;;5.22;;
15776;SDS011;7989;51.198;6.676;2024-01-27T10:02:42;12.00;;;4.97;;
15776;SDS011;7989;51.198;6.676;2024-01-27T10:05:11;13.80;;;4.80;;
15776;SDS011;7989;51.198;6.676;2024-01-27T10:07:40;13.50;;;5.97;;
15776;SDS011;7989;51.198;6.676;2024-01-27T10:10:09;10.38;;;4.75;;
15776;SDS011;7989;51.198;6.676;2024-01-27T10:12:38;13.65;;;5.70;;
15776;SDS011;7989;51.198;6.676;2024-01-27T10:15:17;12.43;;;4.90;;
15776;SDS011;7989;51.198;6.676;2024-01-27T10:17:45;12.13;;;5.20;;
15776;SDS011;7989;51.198;6.676;2024-01-27T10:20:12;11.05;;;4.75;;
15776;SDS011;7989;51.198;6.676;2024-01-27T10:22:40;10.90;;;5.15;;
15776;SDS011;7989;51.198;6.676;2024-01-27T10:25:09;12.30;;;5.15;;
15776;SDS011;7989;51.198;6.676;2024-01-27T10:27:36;11.52;;;4.93;;
15776;SDS011;7989;51.198;6.676;2024-01-27T10:30:04;13.30;;;5.10;;
15776;SDS011;7989;51.198;6.676;2024-01-27T10:32:32;10.40;;;4.88;;
15776;SDS011;7989;51.198;6.676;2024-01-27T10:35:02;12.63;;;4.85;;
15776;SDS011;7989;51.198;6.676;2024-01-27T10:37:29;12.90;;;5.18;;
15776;SDS011;7989;51.198;6.676;2024-01-27T10:39:59;12.60;;;4.72;;
15776;SDS011;7989;51.198;6.676;2024-01-27T10:42:29;14.90;;;5.22;;
15776;SDS011;7989;51.198;6.676;2024-01-27T10:44:57;10.57;;;4.63;;
15776;SDS011;7989;51.198;6.676;2024-01-27T10:47:25;10.40;;;5.40;;
15776;SDS011;7989;51.198;6.676;2024-01-27T10:49:54;12.23;;;5.07;;
15776;SDS011;7989;51.198;6.676;2024-01-27T10:52:23;10.50;;;4.68;;
15776;SDS011;7989;51.198;6.676;2024-01-27T10:54:55;11.90;;;4.60;;
15776;SDS011;7989;51.198;6.676;2024-01-27T10:57:25;13.85;;;5.68;;
15776;SDS011;7989;51.198;6.676;2024-01-27T10:59:53;11.00;;;4.80;;
15776;SDS011;7989;51.198;6.676;2024-01-27T11:02:21;12.30;;;4.80;;
15776;SDS011;7989;51.198;6.676;2024-01-27T11:04:49;8.38;;;4.30;;
15776;SDS011;7989;51.198;6.676;2024-01-27T11:07:18;10.93;;;4.65;;
15776;SDS011;7989;51.198;6.676;2024-01-27T11:09:47;10.50;;;5.15;;
15776;SDS011;7989;51.198;6.676;2024-01-27T11:12:16;10.30;;;4.70;;
15776;SDS011;7989;51.198;6.676;2024-01-27T11:14:45;12.38;;;5.28;;
15776;SDS011;7989;51.198;6.676;2024-01-27T11:17:14;11.40;;;4.75;;
15776;SDS011;7989;51.198;6.676;2024-01-27T11:19:41;11.52;;;4.72;;
15776;SDS011;7989;51.198;6.676;2024-01-27T11:22:08;13.02;;;5.82;;
15776;SDS011;7989;51.198;6.676;2024-01-27T11:24:50;15.13;;;5.05;;
15776;SDS011;7989;51.198;6.676;2024-01-27T11:27:17;14.63;;;5.55;;
15776;SDS011;7989;51.198;6.676;2024-01-27T11:29:46;10.30;;;5.32;;
15776;SDS011;7989;51.198;6.676;2024-01-27T11:32:15;10.88;;;4.75;;
15776;SDS011;7989;51.198;6.676;2024-01-27T11:34:42;10.00;;;4.30;;
15776;SDS011;7989;51.198;6.676;2024-01-27T11:37:11;11.25;;;5.03;;
15776;SDS011;7989;51.198;6.676;2024-01-27T11:39:39;11.10;;;4.25;;
15776;SDS011;7989;51.198;6.676;2024-01-27T11:42:06;10.18;;;4.55;;
15776;SDS011;7989;51.198;6.676;2024-01-27T11:44:34;10.18;;;5.22;;
15776;SDS011;7989;51.198;6.676;2024-01-27T11:47:01;10.73;;;5.13;;
15776;SDS011;7989;51.198;6.676;2024-01-27T11:49:29;8.98;;;4.72;;
15776;SDS011;7989;51.198;6.676;2024-01-27T11:51:56;12.85;;;5.80;;
15776;SDS011;7989;51.198;6.676;2024-01-27T11:54:23;11.52;;;4.90;;
15776;SDS011;7989;51.198;6.676;2024-01-27T11:56:50;10.02;;;4.93;;
15776;SDS011;7989;51.198;6.676;2024-01-27T11:59:17;10.63;;;5.00;;
15776;SDS011;7989;51.198;6.676;2024-01-27T12:01:43;10.68;;;4.85;;
15776;SDS011;7989;51.198;6.676;2024-01-27T12:04:09;10.85;;;4.55;;
15776;SDS011;7989;51.198;6.676;2024-01-27T12:06:40;9.13;;;4.90;;
15776;SDS011;7989;51.198;6.676;2024-01-27T12:09:07;11.88;;;4.85;;
15776;SDS011;7989;51.198;6.676;2024-01-27T12:11:37;9.52;;;4.45;;
15776;SDS011;7989;51.198;6.676;2024-01-27T12:14:05;8.13;;;4.38;;
15776;SDS011;7989;51.198;6.676;2024-01-27T12:16:32;19.02;;;5.70;;
15776;SDS011;7989;51.198;6.676;2024-01-27T12:18:59;13.40;;;4.88;;
15776;SDS011;7989;51.198;6.676;2024-01-27T12:21:26;11.57;;;4.95;;
15776;SDS011;7989;51.198;6.676;2024-01-27T12:23:54;8.20;;;4.32;;
15776;SDS011;7989;51.198;6.676;2024-01-27T12:26:22;10.90;;;5.30;;
15776;SDS011;7989;51.198;6.676;2024-01-27T12:28:50;9.57;;;3.80;;
15776;SDS011;7989;51.198;6.676;2024-01-27T12:31:17;9.23;;;4.18;;
15776;SDS011;7989;51.198;6.676;2024-01-27T12:33:51;8.20;;;3.95;;
15776;SDS011;7989;51.198;6.676;2024-01-27T12:36:18;14.70;;;5.38;;
15776;SDS011;7989;51.198;6.676;2024-01-27T12:38:46;11.75;;;4.30;;
15776;SDS011;7989;51.198;6.676;2024-01-27T12:41:15;11.38;;;4.50;;
15776;SDS011;7989;51.198;6.676;2024-01-27T12:43:42;7.75;;;3.80;;
15776;SDS011;7989;51.198;6.676;2024-01-27T12:46:09;8.32;;;3.72;;
15776;SDS011;7989;51.198;6.676;2024-01-27T12:48:37;8.05;;;3.58;;
15776;SDS011;7989;51.198;6.676;2024-01-27T12:51:04;9.23;;;4.05;;
15776;SDS011;7989;51.198;6.676;2024-01-27T12:53:31;10.10;;;5.03;;
15776;SDS011;7989;51.198;6.676;2024-01-27T12:55:58;8.73;;;4.03;;
15776;SDS011;7989;51.198;6.676;2024-01-27T12:58:26;6.88;;;3.92;;
15776;SDS011;7989;51.198;6.676;2024-01-27T13:00:53;7.10;;;3.50;;
15776;SDS011;7989;51.198;6.676;2024-01-27T13:03:20;10.02;;;3.63;;
15776;SDS011;7989;51.198;6.676;2024-01-27T13:05:47;12.55;;;3.83;;
15776;SDS011;7989;51.198;6.676;2024-01-27T13:08:14;9.88;;;3.42;;
15776;SDS011;7989;51.198;6.676;2024-01-27T13:10:41;8.43;;;3.78;;
15776;SDS011;7989;51.198;6.676;2024-01-27T13:13:07;8.90;;;3.92;;
15776;SDS011;7989;51.198;6.676;2024-01-27T13:15:36;8.02;;;3.63;;
15776;SDS011;7989;51.198;6.676;2024-01-27T13:18:03;10.45;;;3.90;;
15776;SDS011;7989;51.198;6.676;2024-01-27T13:20:31;7.13;;;3.60;;
15776;SDS011;7989;51.198;6.676;2024-01-27T13:22:58;10.90;;;4.00;;
15776;SDS011;7989;51.198;6.676;2024-01-27T13:25:25;10.98;;;3.85;;
15776;SDS011;7989;51.198;6.676;2024-01-27T13:27:51;7.20;;;3.65;;
15776;SDS011;7989;51.198;6.676;2024-01-27T13:30:18;6.80;;;2.85;;
15776;SDS011;7989;51.198;6.676;2024-01-27T13:32:46;7.97;;;4.00;;
15776;SDS011;7989;51.198;6.676;2024-01-27T13:35:13;9.68;;;2.97;;
15776;SDS011;7989;51.198;6.676;2024-01-27T13:37:40;7.85;;;3.35;;
15776;SDS011;7989;51.198;6.676;2024-01-27T13:40:08;9.55;;;4.05;;
15776;SDS011;7989;51.198;6.676;2024-01-27T13:42:35;8.38;;;3.75;;
15776;SDS011;7989;51.198;6.676;2024-01-27T13:45:02;9.98;;;3.35;;
15776;SDS011;7989;51.198;6.676;2024-01-27T13:47:29;9.85;;;3.08;;
15776;SDS011;7989;51.198;6.676;2024-01-27T13:49:58;8.88;;;3.20;;
15776;SDS011;7989;51.198;6.676;2024-01-27T13:52:25;11.35;;;3.90;;
15776;SDS011;7989;51.198;6.676;2024-01-27T13:54:54;9.40;;;3.20;;
15776;SDS011;7989;51.198;6.676;2024-01-27T13:57:21;9.32;;;3.60;;
15776;SDS011;7989;51.198;6.676;2024-01-27T13:59:48;8.38;;;3.63;;
15776;SDS011;7989;51.198;6.676;2024-01-27T14:02:15;9.65;;;3.45;;
15776;SDS011;7989;51.198;6.676;2024-01-27T14:04:42;9.27;;;3.60;;
15776;SDS011;7989;51.198;6.676;2024-01-27T14:07:10;8.65;;;2.90;;
15776;SDS011;7989;51.198;6.676;2024-01-27T14:09:37;7.38;;;3.30;;
15776;SDS011;7989;51.198;6.676;2024-01-27T14:12:04;7.00;;;3.30;;
15776;SDS011;7989;51.198;6.676;2024-01-27T14:14:32;8.80;;;2.70;;
15776;SDS011;7989;51.198;6.676;2024-01-27T14:17:01;15.80;;;4.18;;
15776;SDS011;7989;51.198;6.676;2024-01-27T14:19:28;9.93;;;3.40;;
15776;SDS011;7989;51.198;6.676;2024-01-27T14:21:55;7.70;;;3.25;;
15776;SDS011;7989;51.198;6.676;2024-01-27T14:24:23;10.02;;;3.60;;
15776;SDS011;7989;51.198;6.676;2024-01-27T14:26:50;11.50;;;2.72;;
15776;SDS011;7989;51.198;6.676;2024-01-27T14:29:18;12.75;;;4.45;;
15776;SDS011;7989;51.198;6.676;2024-01-27T14:31:44;9.27;;;3.60;;
15776;SDS011;7989;51.198;6.676;2024-01-27T14:34:11;6.43;;;3.10;;
15776;SDS011;7989;51.198;6.676;2024-01-27T14:36:38;9.73;;;3.15;;
15776;SDS011;7989;51.198;6.676;2024-01-27T14:39:05;13.57;;;3.03;;
15776;SDS011;7989;51.198;6.676;2024-01-27T14:41:37;11.20;;;5.25;;
15776;SDS011;7989;51.198;6.676;2024-01-27T14:44:04;9.80;;;4.05;;
15776;SDS011;7989;51.198;6.676;2024-01-27T14:46:31;8.18;;;2.83;;
15776;SDS011;7989;51.198;6.676;2024-01-27T14:49:03;9.88;;;3.25;;
15776;SDS011;7989;51.198;6.676;2024-01-27T14:51:30;5.97;;;2.72;;